Time;durP1;ratioP1;P1;durP2;ratioP2;P2;SDS_P1;SDS_P2;PMS_P1;PMS_P2;Temp;Humidity;BMP_temperature;BMP_pressure;BME280_temperature;BME280_humidity;BME280_pressure;Samples;Min_cycle;Max_cycle;Signal;HPM_P1;HPM_P2
2022/09/14 00:01:29;;;;;;;11.10;10.30;;;;;;;;;;5038627;28;20469;-65
2022/09/14 00:03:57;;;;;;;11.85;11.13;;;;;;;;;;5039295;28;20021;-65
2022/09/14 00:06:22;;;;;;;11.18;10.45;;;;;;;;;;5033561;28;20090;-65
2022/09/14 00:08:51;;;;;;;11.50;10.75;;;;;;;;;;5040812;28;20016;-64
2022/09/14 00:11:17;;;;;;;11.00;10.32;;;;;;;;;;5040384;28;20029;-66
2022/09/14 00:13:44;;;;;;;13.02;12.10;;;;;;;;;;5035643;28;20038;-66
2022/09/14 00:16:16;;;;;;;16.23;15.23;;;;;;;;;;5034831;28;20382;-67
2022/09/14 00:18:41;;;;;;;17.05;16.00;;;;;;;;;;5038950;28;20021;-68
2022/09/14 00:21:08;;;;;;;16.77;15.77;;;;;;;;;;5037777;28;20043;-68
2022/09/14 00:23:36;;;;;;;19.88;18.65;;;;;;;;;;5038232;28;20485;-68
2022/09/14 00:26:07;;;;;;;17.00;16.00;;;;;;;;;;5034662;28;20454;-69
2022/09/14 00:28:38;;;;;;;17.67;16.70;;;;;;;;;;5036968;28;20060;-67
2022/09/14 00:31:04;;;;;;;15.60;14.70;;;;;;;;;;5039245;28;20029;-68
2022/09/14 00:33:30;;;;;;;16.67;15.65;;;;;;;;;;5039308;28;20035;-69
2022/09/14 00:36:10;;;;;;;19.95;18.80;;;;;;;;;;5037372;28;20112;-69
2022/09/14 00:38:36;;;;;;;23.25;21.80;;;;;;;;;;5036321;28;20029;-68
2022/09/14 00:41:03;;;;;;;25.33;23.95;;;;;;;;;;5039434;28;20416;-69
2022/09/14 00:43:29;;;;;;;12.88;12.07;;;;;;;;;;5038258;28;20029;-68
2022/09/14 00:45:55;;;;;;;11.93;11.18;;;;;;;;;;5037591;28;20029;-69
2022/09/14 00:48:23;;;;;;;11.55;10.75;;;;;;;;;;5037535;28;20512;-69
2022/09/14 00:50:49;;;;;;;12.45;11.70;;;;;;;;;;5038278;28;20037;-69
2022/09/14 00:53:15;;;;;;;9.25;8.65;;;;;;;;;;5034700;28;20036;-70
2022/09/14 00:55:40;;;;;;;11.57;10.85;;;;;;;;;;5038391;28;20108;-69
2022/09/14 00:58:06;;;;;;;10.23;9.55;;;;;;;;;;5036444;28;20405;-69
2022/09/14 01:00:31;;;;;;;10.13;9.52;;;;;;;;;;5034928;28;20076;-69
2022/09/14 01:02:57;;;;;;;11.00;10.25;;;;;;;;;;5037402;28;20029;-68
2022/09/14 01:05:33;;;;;;;11.13;10.23;;;;;;;;;;5037935;28;20244;-68
2022/09/14 01:08:17;;;;;;;10.52;9.82;;;;;;;;;;5035658;28;20116;-68
2022/09/14 01:11:05;;;;;;;11.55;10.60;;;;;;;;;;5035503;28;20035;-67
2022/09/14 01:13:55;;;;;;;11.07;10.38;;;;;;;;;;5035184;28;20119;-67
2022/09/14 01:16:37;;;;;;;11.02;10.30;;;;;;;;;;5036002;28;20036;-69
2022/09/14 01:19:13;;;;;;;10.75;10.05;;;;;;;;;;5034406;28;20025;-68
2022/09/14 01:21:42;;;;;;;11.45;10.55;;;;;;;;;;5036167;28;20047;-70
2022/09/14 01:24:20;;;;;;;12.90;12.05;;;;;;;;;;5037735;28;20033;-69
2022/09/14 01:26:58;;;;;;;12.73;11.93;;;;;;;;;;5037780;28;20024;-70
2022/09/14 01:29:32;;;;;;;13.18;12.27;;;;;;;;;;5035072;28;20041;-70
2022/09/14 01:32:16;;;;;;;14.52;13.68;;;;;;;;;;5036314;28;20037;-69
2022/09/14 01:35:04;;;;;;;15.20;14.30;;;;;;;;;;5034339;28;20164;-69
2022/09/14 01:37:48;;;;;;;18.98;17.90;;;;;;;;;;5038583;28;20108;-69
2022/09/14 01:40:23;;;;;;;23.90;20.33;;;;;;;;;;5037253;28;20026;-69
2022/09/14 01:42:52;;;;;;;20.92;19.52;;;;;;;;;;5035141;28;20530;-70
2022/09/14 01:45:21;;;;;;;20.48;19.38;;;;;;;;;;5033290;28;20078;-69
2022/09/14 01:47:52;;;;;;;16.63;15.43;;;;;;;;;;5035338;28;20029;-69
2022/09/14 01:50:25;;;;;;;15.30;14.32;;;;;;;;;;5031491;28;20021;-69
2022/09/14 01:52:57;;;;;;;15.52;14.63;;;;;;;;;;5036521;28;20033;-69
2022/09/14 01:55:32;;;;;;;13.43;12.63;;;;;;;;;;5034488;28;20051;-70
2022/09/14 01:58:12;;;;;;;15.02;14.13;;;;;;;;;;5066122;28;20032;-69
2022/09/14 02:00:44;;;;;;;12.75;11.95;;;;;;;;;;5036187;28;20134;-68
2022/09/14 02:03:18;;;;;;;13.93;13.07;;;;;;;;;;5036238;28;20056;-68
2022/09/14 02:05:56;;;;;;;14.43;13.30;;;;;;;;;;5034270;28;20338;-68
2022/09/14 02:08:26;;;;;;;14.30;13.40;;;;;;;;;;5034076;28;20132;-69
2022/09/14 02:10:52;;;;;;;14.37;13.30;;;;;;;;;;5038468;28;20040;-69
2022/09/14 02:13:17;;;;;;;14.63;13.73;;;;;;;;;;5034803;28;20494;-70
2022/09/14 02:15:42;;;;;;;15.02;14.13;;;;;;;;;;5035304;28;20039;-70
2022/09/14 02:18:08;;;;;;;17.33;16.33;;;;;;;;;;5036400;28;20033;-70
2022/09/14 02:20:53;;;;;;;15.30;14.40;;;;;;;;;;5033331;28;20549;-70
2022/09/14 02:23:19;;;;;;;17.13;16.17;;;;;;;;;;5036485;28;20399;-70
2022/09/14 02:25:46;;;;;;;19.13;17.83;;;;;;;;;;5041482;28;20064;-69
2022/09/14 02:28:11;;;;;;;21.15;19.98;;;;;;;;;;5037367;28;20052;-70
2022/09/14 02:31:01;;;;;;;17.23;16.23;;;;;;;;;;5036560;28;20025;-70
2022/09/14 02:33:54;;;;;;;18.33;17.23;;;;;;;;;;5037166;28;20148;-70
2022/09/14 02:36:32;;;;;;;19.90;18.80;;;;;;;;;;5036416;28;20033;-70
2022/09/14 02:39:25;;;;;;;19.65;18.55;;;;;;;;;;5034104;28;20040;-70
2022/09/14 02:42:03;;;;;;;15.10;14.20;;;;;;;;;;5035396;28;20487;-69
2022/09/14 02:44:39;;;;;;;18.85;17.75;;;;;;;;;;5033627;28;20060;-70
2022/09/14 02:47:30;;;;;;;17.48;16.48;;;;;;;;;;5031734;28;20052;-70
2022/09/14 02:49:58;;;;;;;17.13;16.13;;;;;;;;;;5033823;28;20037;-70
2022/09/14 02:52:33;;;;;;;16.65;15.70;;;;;;;;;;5034458;28;20453;-70
2022/09/14 02:55:11;;;;;;;16.65;15.68;;;;;;;;;;5034317;28;20033;-70
2022/09/14 02:58:00;;;;;;;16.63;15.65;;;;;;;;;;5038760;28;20029;-71
2022/09/14 03:00:28;;;;;;;19.35;18.25;;;;;;;;;;5037973;28;20024;-70
2022/09/14 03:02:53;;;;;;;19.08;18.00;;;;;;;;;;5033175;28;20120;-70
2022/09/14 03:05:20;;;;;;;20.13;18.83;;;;;;;;;;5034382;28;20139;-70
2022/09/14 03:07:45;;;;;;;19.80;18.70;;;;;;;;;;5032017;28;20029;-70
2022/09/14 03:10:11;;;;;;;21.58;20.40;;;;;;;;;;5036666;28;20040;-70
2022/09/14 03:12:37;;;;;;;18.58;17.55;;;;;;;;;;5036125;28;20060;-70
2022/09/14 03:15:03;;;;;;;16.58;15.68;;;;;;;;;;5069179;28;20373;-70
2022/09/14 03:17:28;;;;;;;16.40;15.40;;;;;;;;;;5037205;28;20116;-70
2022/09/14 03:19:53;;;;;;;16.75;15.73;;;;;;;;;;5032768;28;20483;-69
2022/09/14 03:22:19;;;;;;;14.90;14.00;;;;;;;;;;5032351;28;20048;-69
2022/09/14 03:24:44;;;;;;;14.30;13.50;;;;;;;;;;5034292;28;20029;-70
2022/09/14 03:27:09;;;;;;;15.45;14.55;;;;;;;;;;5032814;28;20025;-70
2022/09/14 03:29:35;;;;;;;11.82;11.05;;;;;;;;;;5036440;28;20365;-71
2022/09/14 03:32:00;;;;;;;11.18;10.38;;;;;;;;;;5035017;28;20528;-71
2022/09/14 03:34:26;;;;;;;12.43;11.68;;;;;;;;;;5035983;28;20029;-71
2022/09/14 03:36:51;;;;;;;11.25;10.55;;;;;;;;;;5033928;28;20056;-71
2022/09/14 03:39:16;;;;;;;10.50;9.80;;;;;;;;;;5033605;28;20033;-71
2022/09/14 03:41:41;;;;;;;11.70;11.00;;;;;;;;;;5032830;28;20021;-71
2022/09/14 03:44:08;;;;;;;11.48;10.77;;;;;;;;;;5036344;28;20052;-71
2022/09/14 03:46:34;;;;;;;10.25;9.60;;;;;;;;;;5032541;28;20021;-71
2022/09/14 03:48:59;;;;;;;9.98;9.32;;;;;;;;;;5035356;28;20048;-71
2022/09/14 03:51:25;;;;;;;10.30;9.60;;;;;;;;;;5033775;28;20032;-71
2022/09/14 03:53:50;;;;;;;11.95;10.93;;;;;;;;;;5034928;28;20029;-72
2022/09/14 03:56:18;;;;;;;11.55;10.85;;;;;;;;;;5033551;28;22111;-72
2022/09/14 03:58:45;;;;;;;10.93;10.23;;;;;;;;;;5037049;28;20041;-72
2022/09/14 04:01:14;;;;;;;11.85;10.75;;;;;;;;;;5032606;28;20383;-71
2022/09/14 04:03:40;;;;;;;15.07;14.07;;;;;;;;;;5065093;28;20624;-72
2022/09/14 04:06:07;;;;;;;16.20;15.10;;;;;;;;;;5040341;28;20163;-72
2022/09/14 04:08:34;;;;;;;18.30;17.20;;;;;;;;;;5033444;28;20040;-72
2022/09/14 04:11:00;;;;;;;22.00;20.67;;;;;;;;;;5034072;28;20032;-72
2022/09/14 04:13:25;;;;;;;23.05;21.80;;;;;;;;;;5034896;28;20351;-73
2022/09/14 04:15:58;;;;;;;26.60;25.00;;;;;;;;;;5036246;28;20026;-72
2022/09/14 04:18:24;;;;;;;28.15;26.65;;;;;;;;;;5033760;28;20025;-72
2022/09/14 04:20:58;;;;;;;34.30;32.50;;;;;;;;;;5032813;28;20443;-72
2022/09/14 04:23:24;;;;;;;30.25;28.67;;;;;;;;;;5035321;28;20462;-72
2022/09/14 04:25:50;;;;;;;18.70;17.67;;;;;;;;;;5035466;28;20040;-72
2022/09/14 04:28:16;;;;;;;24.73;23.40;;;;;;;;;;5035314;28;20028;-72
2022/09/14 04:30:41;;;;;;;27.73;26.27;;;;;;;;;;5038377;28;20029;-72
2022/09/14 04:33:07;;;;;;;30.58;28.98;;;;;;;;;;5069400;28;20854;-72
2022/09/14 04:35:32;;;;;;;33.20;31.48;;;;;;;;;;5037272;28;20242;-71
2022/09/14 04:37:58;;;;;;;33.67;31.73;;;;;;;;;;5038141;28;20348;-72
2022/09/14 04:40:23;;;;;;;29.77;28.15;;;;;;;;;;5040066;28;20025;-71
2022/09/14 04:42:48;;;;;;;31.08;29.27;;;;;;;;;;5040582;28;20082;-71
2022/09/14 04:45:14;;;;;;;27.27;25.80;;;;;;;;;;5039541;28;20461;-71
2022/09/14 04:47:39;;;;;;;23.25;22.00;;;;;;;;;;5038532;28;20483;-71
2022/09/14 04:50:05;;;;;;;25.02;23.63;;;;;;;;;;5037600;28;21690;-71
2022/09/14 04:52:30;;;;;;;26.80;25.33;;;;;;;;;;5038573;28;20430;-71
2022/09/14 04:54:56;;;;;;;27.77;26.27;;;;;;;;;;5038263;28;20150;-71
2022/09/14 04:57:21;;;;;;;30.98;29.33;;;;;;;;;;5038082;28;20048;-71
2022/09/14 04:59:46;;;;;;;39.17;37.10;;;;;;;;;;5042201;28;20441;-71
2022/09/14 05:02:12;;;;;;;44.85;42.55;;;;;;;;;;5038538;28;20041;-71
2022/09/14 05:04:37;;;;;;;43.75;41.35;;;;;;;;;;5037611;28;20252;-70
2022/09/14 05:07:02;;;;;;;33.25;31.50;;;;;;;;;;5038424;28;20037;-71
2022/09/14 05:09:28;;;;;;;25.10;23.75;;;;;;;;;;5034012;28;20083;-71
2022/09/14 05:11:53;;;;;;;24.33;22.98;;;;;;;;;;5037268;28;20048;-71
2022/09/14 05:14:19;;;;;;;25.58;24.17;;;;;;;;;;5036615;28;20033;-71
2022/09/14 05:16:44;;;;;;;26.70;25.25;;;;;;;;;;5035558;28;20359;-70
2022/09/14 05:19:14;;;;;;;27.02;25.58;;;;;;;;;;5038250;28;20037;-70
2022/09/14 05:21:39;;;;;;;23.52;22.23;;;;;;;;;;5038628;28;20060;-70
2022/09/14 05:24:10;;;;;;;21.95;20.65;;;;;;;;;;5037484;28;20061;-70
2022/09/14 05:26:36;;;;;;;25.77;24.33;;;;;;;;;;5040067;28;20021;-70
2022/09/14 05:29:01;;;;;;;26.02;24.60;;;;;;;;;;5037143;28;20090;-69
2022/09/14 05:31:28;;;;;;;25.10;23.73;;;;;;;;;;5038160;28;20572;-71
2022/09/14 05:33:54;;;;;;;25.15;23.73;;;;;;;;;;5039658;28;20033;-68
2022/09/14 05:36:20;;;;;;;24.33;22.95;;;;;;;;;;5036810;28;20032;-70
2022/09/14 05:38:45;;;;;;;26.65;25.20;;;;;;;;;;5041490;28;20489;-69
2022/09/14 05:41:12;;;;;;;24.75;23.30;;;;;;;;;;5037682;28;20044;-70
2022/09/14 05:43:39;;;;;;;31.50;29.83;;;;;;;;;;5039313;28;20033;-70
2022/09/14 05:46:11;;;;;;;33.33;31.58;;;;;;;;;;5037800;28;20044;-70
2022/09/14 05:48:38;;;;;;;30.50;28.75;;;;;;;;;;5038389;28;20455;-70
2022/09/14 05:51:08;;;;;;;28.52;26.98;;;;;;;;;;5035789;28;20045;-70
2022/09/14 05:53:34;;;;;;;28.25;26.70;;;;;;;;;;5036485;28;20047;-70
2022/09/14 05:56:02;;;;;;;27.23;25.75;;;;;;;;;;5036934;28;20037;-70
2022/09/14 05:58:27;;;;;;;24.35;23.02;;;;;;;;;;5037148;28;20624;-69
2022/09/14 06:00:52;;;;;;;20.73;19.60;;;;;;;;;;5037376;28;20032;-71
2022/09/14 06:03:18;;;;;;;21.88;20.60;;;;;;;;;;5039134;28;20549;-69
2022/09/14 06:05:43;;;;;;;18.65;17.58;;;;;;;;;;5036450;28;20355;-70
2022/09/14 06:08:08;;;;;;;18.40;17.00;;;;;;;;;;5035293;28;20040;-68
2022/09/14 06:10:34;;;;;;;22.30;21.02;;;;;;;;;;5067922;28;20476;-71
2022/09/14 06:12:59;;;;;;;21.77;20.60;;;;;;;;;;5035317;28;20033;-71
2022/09/14 06:15:24;;;;;;;18.55;17.55;;;;;;;;;;5036248;28;20020;-70
2022/09/14 06:17:49;;;;;;;16.35;15.43;;;;;;;;;;5033654;28;20690;-71
2022/09/14 06:20:17;;;;;;;18.17;17.08;;;;;;;;;;5033721;28;20067;-71
2022/09/14 06:22:43;;;;;;;16.90;15.90;;;;;;;;;;5039557;28;20041;-69
2022/09/14 06:25:10;;;;;;;19.75;18.63;;;;;;;;;;5038174;28;20033;-70
2022/09/14 06:27:35;;;;;;;20.10;18.92;;;;;;;;;;5036236;28;20132;-69
2022/09/14 06:30:01;;;;;;;23.40;22.08;;;;;;;;;;5036703;28;20109;-70
2022/09/14 06:32:29;;;;;;;19.17;18.10;;;;;;;;;;5033478;28;20463;-68
2022/09/14 06:34:54;;;;;;;18.15;17.13;;;;;;;;;;5033240;28;20036;-68
2022/09/14 06:37:19;;;;;;;19.27;18.20;;;;;;;;;;5034318;28;20447;-69
2022/09/14 06:39:45;;;;;;;18.98;17.92;;;;;;;;;;5036258;28;20110;-69
2022/09/14 06:42:10;;;;;;;19.60;18.50;;;;;;;;;;5036309;28;20395;-69
2022/09/14 06:44:35;;;;;;;15.57;14.68;;;;;;;;;;5034815;28;20123;-69
2022/09/14 06:47:01;;;;;;;12.02;11.32;;;;;;;;;;5032394;28;20037;-69
2022/09/14 06:49:26;;;;;;;11.93;11.23;;;;;;;;;;5035784;28;20046;-69
2022/09/14 06:51:54;;;;;;;11.63;10.93;;;;;;;;;;5032289;28;20094;-69
2022/09/14 06:54:20;;;;;;;10.20;9.60;;;;;;;;;;5034502;28;20470;-69
2022/09/14 06:56:45;;;;;;;21.95;10.30;;;;;;;;;;5033921;28;20021;-70
2022/09/14 06:59:14;;;;;;;11.27;10.55;;;;;;;;;;5035280;28;20355;-72
2022/09/14 07:01:39;;;;;;;13.10;12.20;;;;;;;;;;5035242;28;20454;-71
2022/09/14 07:04:05;;;;;;;10.50;9.80;;;;;;;;;;5035566;28;20120;-71
2022/09/14 07:06:37;;;;;;;11.70;11.00;;;;;;;;;;5031209;28;20469;-72
2022/09/14 07:09:04;;;;;;;11.50;10.80;;;;;;;;;;5035414;28;20029;-73
2022/09/14 07:11:29;;;;;;;13.40;12.55;;;;;;;;;;5034112;28;20060;-73
2022/09/14 07:13:58;;;;;;;13.52;12.73;;;;;;;;;;5038335;28;20048;-73
2022/09/14 07:16:25;;;;;;;11.30;10.60;;;;;;;;;;5036657;28;20091;-74
2022/09/14 07:18:59;;;;;;;10.73;10.05;;;;;;;;;;5036157;28;20029;-68
2022/09/14 07:21:25;;;;;;;13.15;12.35;;;;;;;;;;5034320;28;20087;-75
2022/09/14 07:23:51;;;;;;;13.60;12.80;;;;;;;;;;5035358;28;20041;-76
2022/09/14 07:26:22;;;;;;;14.52;13.63;;;;;;;;;;5032030;28;20092;-73
2022/09/14 07:28:57;;;;;;;13.80;12.95;;;;;;;;;;5033880;28;20114;-72
2022/09/14 07:31:26;;;;;;;14.02;13.23;;;;;;;;;;5036605;28;20419;-73
2022/09/14 07:33:57;;;;;;;13.52;12.73;;;;;;;;;;5036438;28;20068;-73
2022/09/14 07:36:23;;;;;;;;;;;;;;;;;;5035465;28;20033;-74
2022/09/14 07:38:49;;;;;;;12.75;11.95;;;;;;;;;;5033425;28;19913;-74
2022/09/14 07:41:14;;;;;;;14.05;13.15;;;;;;;;;;5032215;28;20075;-72
2022/09/14 07:43:40;;;;;;;12.07;11.27;;;;;;;;;;5034162;28;20121;-72
2022/09/14 07:46:05;;;;;;;14.43;13.63;;;;;;;;;;5034890;28;20105;-71
2022/09/14 07:48:32;;;;;;;12.32;11.63;;;;;;;;;;5035328;28;20041;-70
2022/09/14 07:51:03;;;;;;;14.23;13.30;;;;;;;;;;5034072;28;20246;-72
2022/09/14 07:53:28;;;;;;;;;;;;;;;;;;5036561;28;20160;-71
2022/09/14 07:55:57;;;;;;;11.05;10.35;;;;;;;;;;5032961;28;19913;-72
2022/09/14 07:58:22;;;;;;;10.10;9.35;;;;;;;;;;5033263;28;20374;-72
2022/09/14 08:00:48;;;;;;;12.43;11.68;;;;;;;;;;5034126;28;20033;-71
2022/09/14 08:03:14;;;;;;;12.45;11.65;;;;;;;;;;5039792;28;20029;-71
2022/09/14 08:05:39;;;;;;;12.55;11.77;;;;;;;;;;5034935;28;20455;-71
2022/09/14 08:08:04;;;;;;;12.43;11.70;;;;;;;;;;5037785;28;20033;-70
2022/09/14 08:10:30;;;;;;;11.38;10.68;;;;;;;;;;5035609;28;20087;-69
2022/09/14 08:12:55;;;;;;;11.90;11.02;;;;;;;;;;5036780;28;20034;-69
2022/09/14 08:15:22;;;;;;;13.40;12.60;;;;;;;;;;5072656;28;20112;-69
2022/09/14 08:17:48;;;;;;;12.80;11.98;;;;;;;;;;5038110;28;20514;-69
2022/09/14 08:20:15;;;;;;;11.02;10.32;;;;;;;;;;5036686;28;20041;-70
2022/09/14 08:22:43;;;;;;;11.25;10.55;;;;;;;;;;5038909;28;20032;-69
2022/09/14 08:25:09;;;;;;;11.45;10.75;;;;;;;;;;5037495;28;20529;-69
2022/09/14 08:27:35;;;;;;;11.82;11.13;;;;;;;;;;5038260;28;20040;-70
2022/09/14 08:30:01;;;;;;;12.02;11.23;;;;;;;;;;5039507;28;20036;-70
2022/09/14 08:32:26;;;;;;;11.23;10.52;;;;;;;;;;5035265;28;20445;-69
2022/09/14 08:34:52;;;;;;;12.70;11.80;;;;;;;;;;5035176;28;20033;-69
2022/09/14 08:37:17;;;;;;;12.93;12.13;;;;;;;;;;5035699;28;20518;-70
2022/09/14 08:39:44;;;;;;;12.63;11.82;;;;;;;;;;5036563;28;20111;-70
2022/09/14 08:42:16;;;;;;;13.35;12.55;;;;;;;;;;5040587;28;20029;-69
2022/09/14 08:44:56;;;;;;;11.52;10.82;;;;;;;;;;5041886;28;20036;-69
2022/09/14 08:47:31;;;;;;;12.27;11.57;;;;;;;;;;5037329;28;20654;-69
2022/09/14 08:50:08;;;;;;;11.70;11.00;;;;;;;;;;5036048;28;20043;-69
2022/09/14 08:52:45;;;;;;;12.57;11.82;;;;;;;;;;5037597;28;20029;-68
2022/09/14 08:55:26;;;;;;;13.65;12.82;;;;;;;;;;5038316;28;20033;-68
2022/09/14 08:57:54;;;;;;;12.30;11.57;;;;;;;;;;5036071;28;20094;-69
2022/09/14 09:00:38;;;;;;;13.77;12.98;;;;;;;;;;5035660;28;20033;-69
2022/09/14 09:03:36;;;;;;;12.52;11.73;;;;;;;;;;5035904;28;20025;-68
2022/09/14 09:06:38;;;;;;;13.02;12.23;;;;;;;;;;5033817;28;20037;-69
2022/09/14 09:09:15;;;;;;;13.20;12.30;;;;;;;;;;5054894;28;20049;-69
2022/09/14 09:11:45;;;;;;;12.75;11.98;;;;;;;;;;5038060;28;20021;-69
2022/09/14 09:14:32;;;;;;;12.77;11.98;;;;;;;;;;5036211;28;20029;-68
2022/09/14 09:17:02;;;;;;;12.30;11.50;;;;;;;;;;5039458;28;20032;-70
2022/09/14 09:19:32;;;;;;;11.95;11.25;;;;;;;;;;5037874;28;20390;-69
2022/09/14 09:21:58;;;;;;;;;;;;;;;;;;5067899;28;20132;-68
2022/09/14 09:24:33;;;;;;;12.90;12.10;;;;;;;;;;5033883;28;19960;-68
2022/09/14 09:26:59;;;;;;;12.45;11.65;;;;;;;;;;5038153;28;20025;-69
2022/09/14 09:29:24;;;;;;;12.27;11.48;;;;;;;;;;5035920;28;20463;-68
2022/09/14 09:31:55;;;;;;;13.43;12.63;;;;;;;;;;5036119;28;20044;-68
2022/09/14 09:34:29;;;;;;;11.10;10.40;;;;;;;;;;5035420;28;20104;-65
2022/09/14 09:36:54;;;;;;;12.98;12.18;;;;;;;;;;5037063;28;20075;-67
2022/09/14 09:39:22;;;;;;;14.45;13.55;;;;;;;;;;5035755;28;20045;-67
2022/09/14 09:41:55;;;;;;;15.10;14.20;;;;;;;;;;5034188;28;20198;-67
2022/09/14 09:44:20;;;;;;;19.70;18.58;;;;;;;;;;5037397;28;20052;-67
2022/09/14 09:46:53;;;;;;;21.23;20.02;;;;;;;;;;5036843;28;20064;-67
2022/09/14 09:49:29;;;;;;;20.75;19.60;;;;;;;;;;5037220;28;20645;-67
2022/09/14 09:51:55;;;;;;;20.67;19.48;;;;;;;;;;5036824;28;20029;-67
2022/09/14 09:54:30;;;;;;;20.27;19.15;;;;;;;;;;5042215;28;20092;-67
2022/09/14 09:57:04;;;;;;;20.92;19.75;;;;;;;;;;5037802;28;20040;-67
2022/09/14 09:59:36;;;;;;;19.83;18.73;;;;;;;;;;5036963;28;20017;-66
2022/09/14 10:02:28;;;;;;;20.33;19.13;;;;;;;;;;5035786;28;20564;-68
2022/09/14 10:05:07;;;;;;;21.20;20.02;;;;;;;;;;5038429;28;20033;-67
2022/09/14 10:07:36;;;;;;;22.30;21.10;;;;;;;;;;5039378;28;20543;-69
2022/09/14 10:10:06;;;;;;;23.60;22.30;;;;;;;;;;5038511;28;20418;-68
2022/09/14 10:12:32;;;;;;;22.02;20.73;;;;;;;;;;5036550;28;20044;-67
2022/09/14 10:15:14;;;;;;;22.77;21.48;;;;;;;;;;5035193;28;20037;-68
2022/09/14 10:17:39;;;;;;;23.27;21.88;;;;;;;;;;5039416;28;20057;-66
2022/09/14 10:20:06;;;;;;;22.23;21.02;;;;;;;;;;5036789;28;20511;-70
2022/09/14 10:22:33;;;;;;;23.60;22.30;;;;;;;;;;5036797;28;20510;-69
2022/09/14 10:25:02;;;;;;;22.65;21.30;;;;;;;;;;5033561;28;20112;-67
2022/09/14 10:27:40;;;;;;;19.65;18.55;;;;;;;;;;5032943;28;20064;-67
2022/09/14 10:30:13;;;;;;;33.63;31.88;;;;;;;;;;5035275;28;20041;-69
2022/09/14 10:32:41;;;;;;;29.08;27.45;;;;;;;;;;5038916;28;20544;-68
2022/09/14 10:35:14;;;;;;;17.27;16.30;;;;;;;;;;5031206;28;20374;-68
2022/09/14 10:37:42;;;;;;;16.10;15.20;;;;;;;;;;5034824;28;20359;-68
2022/09/14 10:40:16;;;;;;;17.00;15.98;;;;;;;;;;5035029;28;20088;-68
2022/09/14 10:43:18;;;;;;;15.55;14.63;;;;;;;;;;5034857;28;20038;-67
2022/09/14 10:45:56;;;;;;;15.02;14.13;;;;;;;;;;5034217;28;20028;-68
2022/09/14 10:48:48;;;;;;;18.08;16.95;;;;;;;;;;5036300;28;20056;-68
2022/09/14 10:52:03;;;;;;;26.27;24.88;;;;;;;;;;5034443;28;20045;-69
2022/09/14 10:54:49;;;;;;;24.92;23.52;;;;;;;;;;5012890;28;20432;-68
2022/09/14 10:57:34;;;;;;;22.60;21.38;;;;;;;;;;5034091;28;20045;-67
2022/09/14 11:00:08;;;;;;;27.92;26.35;;;;;;;;;;5034536;28;20501;-63
2022/09/14 11:03:05;;;;;;;30.70;29.08;;;;;;;;;;5036470;28;20052;-64
2022/09/14 11:05:48;;;;;;;35.50;33.58;;;;;;;;;;5035555;28;20549;-63
2022/09/14 11:08:25;;;;;;;34.75;32.85;;;;;;;;;;5032976;28;20524;-63
2022/09/14 11:10:59;;;;;;;29.63;28.08;;;;;;;;;;5035323;28;20145;-63
2022/09/14 11:13:41;;;;;;;38.38;36.38;;;;;;;;;;5034943;28;20049;-63
2022/09/14 11:16:25;;;;;;;25.83;24.42;;;;;;;;;;5035614;28;20029;-62
2022/09/14 11:19:30;;;;;;;26.63;25.08;;;;;;;;;;5035264;28;20025;-63
2022/09/14 11:22:33;;;;;;;24.10;22.80;;;;;;;;;;5037590;28;20518;-63
2022/09/14 11:25:13;;;;;;;24.35;23.05;;;;;;;;;;4957510;28;20042;-63
2022/09/14 11:27:52;;;;;;;21.52;20.33;;;;;;;;;;5028939;28;20063;-63
2022/09/14 11:30:19;;;;;;;15.40;13.90;;;;;;;;;;5037949;28;20037;-63
2022/09/14 11:32:54;;;;;;;14.77;13.77;;;;;;;;;;5038448;28;20028;-62
2022/09/14 11:35:26;;;;;;;15.85;14.95;;;;;;;;;;5036427;28;20405;-63
2022/09/14 11:37:59;;;;;;;14.00;13.20;;;;;;;;;;5038435;28;20029;-63
2022/09/14 11:40:39;;;;;;;14.25;13.38;;;;;;;;;;5046067;28;20028;-63
2022/09/14 11:43:16;;;;;;;15.88;14.98;;;;;;;;;;5039885;28;20464;-63
2022/09/14 11:45:50;;;;;;;15.73;14.73;;;;;;;;;;5039886;28;20091;-63
2022/09/14 11:48:34;;;;;;;15.55;14.65;;;;;;;;;;5040954;28;20044;-63
2022/09/14 11:51:12;;;;;;;14.70;13.60;;;;;;;;;;5038319;28;20060;-62
2022/09/14 11:53:40;;;;;;;15.75;14.85;;;;;;;;;;5037925;28;21052;-63
2022/09/14 11:56:22;;;;;;;16.63;15.65;;;;;;;;;;5041191;28;20090;-62
2022/09/14 11:58:48;;;;;;;15.45;14.55;;;;;;;;;;5038463;28;20432;-62
2022/09/14 12:01:31;;;;;;;15.18;14.27;;;;;;;;;;5038663;28;20053;-62
2022/09/14 12:03:58;;;;;;;13.98;13.15;;;;;;;;;;5038757;28;20029;-62
2022/09/14 12:06:46;;;;;;;16.83;15.82;;;;;;;;;;5040981;28;20090;-62
2022/09/14 12:09:19;;;;;;;16.80;15.70;;;;;;;;;;5039366;28;20033;-62
2022/09/14 12:11:48;;;;;;;16.73;15.73;;;;;;;;;;5070358;28;20179;-63
2022/09/14 12:14:42;;;;;;;17.08;16.08;;;;;;;;;;5038319;28;20037;-63
2022/09/14 12:17:21;;;;;;;16.48;15.27;;;;;;;;;;5035615;28;20124;-63
2022/09/14 12:19:48;;;;;;;18.13;17.13;;;;;;;;;;5037842;28;20633;-63
2022/09/14 12:22:28;;;;;;;17.75;16.75;;;;;;;;;;5026507;28;20059;-62
2022/09/14 12:25:16;;;;;;;16.55;15.65;;;;;;;;;;5036664;28;20029;-62
2022/09/14 12:27:44;;;;;;;15.98;14.98;;;;;;;;;;5035692;28;20037;-62
2022/09/14 12:30:33;;;;;;;17.60;16.60;;;;;;;;;;5036059;28;20119;-63
2022/09/14 12:32:59;;;;;;;17.30;16.30;;;;;;;;;;5034984;28;20359;-63
2022/09/14 12:35:43;;;;;;;19.85;18.75;;;;;;;;;;5035671;28;20056;-63
2022/09/14 12:38:27;;;;;;;18.67;17.65;;;;;;;;;;5039966;28;20138;-63
2022/09/14 12:40:53;;;;;;;21.27;20.10;;;;;;;;;;5037801;28;20025;-62
2022/09/14 12:43:34;;;;;;;21.73;20.55;;;;;;;;;;5036923;28;20085;-61
2022/09/14 12:46:00;;;;;;;;;;;;;;;;;;5035837;28;20063;-62
2022/09/14 12:48:47;;;;;;;16.38;15.48;;;;;;;;;;5033674;28;19909;-63
2022/09/14 12:51:35;;;;;;;17.73;16.70;;;;;;;;;;5034081;28;20106;-63
2022/09/14 12:54:07;;;;;;;17.70;16.60;;;;;;;;;;5038612;28;20035;-62
2022/09/14 12:56:35;;;;;;;18.05;17.05;;;;;;;;;;5040774;28;20108;-62
2022/09/14 12:59:12;;;;;;;19.73;18.63;;;;;;;;;;5033696;28;20033;-63
2022/09/14 13:02:03;;;;;;;20.13;19.02;;;;;;;;;;5037902;28;20033;-63
2022/09/14 13:04:32;;;;;;;19.08;17.98;;;;;;;;;;5067308;28;20041;-63
2022/09/14 13:07:00;;;;;;;20.38;19.23;;;;;;;;;;5037013;28;20041;-63
2022/09/14 13:09:28;;;;;;;22.10;20.90;;;;;;;;;;5038100;28;20272;-63
2022/09/14 13:11:58;;;;;;;23.92;22.55;;;;;;;;;;5036344;28;20403;-63
2022/09/14 13:14:27;;;;;;;23.20;21.90;;;;;;;;;;5037723;28;20037;-63
2022/09/14 13:16:54;;;;;;;21.25;20.05;;;;;;;;;;5037715;28;20598;-62
2022/09/14 13:19:28;;;;;;;21.73;20.52;;;;;;;;;;5034986;28;20052;-63
2022/09/14 13:21:56;;;;;;;22.80;21.55;;;;;;;;;;5036844;28;20516;-63
2022/09/14 13:24:52;;;;;;;21.75;20.55;;;;;;;;;;5038343;28;20417;-63
2022/09/14 13:27:25;;;;;;;19.70;18.60;;;;;;;;;;5020758;28;20041;-63
2022/09/14 13:30:06;;;;;;;20.30;19.17;;;;;;;;;;5037141;28;20032;-62
2022/09/14 13:32:34;;;;;;;19.42;18.33;;;;;;;;;;5033400;28;20331;-63
2022/09/14 13:35:03;;;;;;;20.65;19.45;;;;;;;;;;5039241;28;20056;-63
2022/09/14 13:37:29;;;;;;;20.95;19.83;;;;;;;;;;5035191;28;20037;-63
2022/09/14 13:39:57;;;;;;;19.55;18.45;;;;;;;;;;5037477;28;20095;-63
2022/09/14 13:42:23;;;;;;;20.10;19.00;;;;;;;;;;5068738;28;20114;-62
2022/09/14 13:44:50;;;;;;;19.58;18.48;;;;;;;;;;5038343;28;20028;-62
2022/09/14 13:47:20;;;;;;;22.42;21.02;;;;;;;;;;5066400;28;20130;-63
2022/09/14 13:49:48;;;;;;;21.58;20.38;;;;;;;;;;5034387;28;20036;-62
2022/09/14 13:52:22;;;;;;;24.85;23.55;;;;;;;;;;5038186;28;20041;-62
2022/09/14 13:54:54;;;;;;;24.10;22.80;;;;;;;;;;5037799;28;20036;-64
2022/09/14 13:57:22;;;;;;;23.40;22.13;;;;;;;;;;5037579;28;20508;-64
2022/09/14 14:00:07;;;;;;;22.58;21.27;;;;;;;;;;5037749;28;20461;-62
2022/09/14 14:02:35;;;;;;;19.30;18.20;;;;;;;;;;5039346;28;20047;-62
2022/09/14 14:05:01;;;;;;;19.60;18.50;;;;;;;;;;5036189;28;20029;-63
2022/09/14 14:07:32;;;;;;;20.38;19.25;;;;;;;;;;5038268;28;20021;-63
2022/09/14 14:09:58;;;;;;;18.77;17.70;;;;;;;;;;5038510;28;20187;-63
2022/09/14 14:12:36;;;;;;;19.33;18.20;;;;;;;;;;5034788;28;20547;-64
2022/09/14 14:15:26;;;;;;;21.17;19.63;;;;;;;;;;5034888;28;20080;-63
2022/09/14 14:17:52;;;;;;;17.15;16.15;;;;;;;;;;5035544;28;20033;-63
2022/09/14 14:20:31;;;;;;;19.63;18.52;;;;;;;;;;5036175;28;20025;-63
2022/09/14 14:23:09;;;;;;;16.75;15.75;;;;;;;;;;5036562;28;20048;-64
2022/09/14 14:25:47;;;;;;;18.08;17.05;;;;;;;;;;5037497;28;20094;-64
2022/09/14 14:28:23;;;;;;;15.40;14.50;;;;;;;;;;5036689;28;20124;-65
2022/09/14 14:30:49;;;;;;;17.60;16.50;;;;;;;;;;5035256;28;20055;-64
2022/09/14 14:33:17;;;;;;;16.42;15.43;;;;;;;;;;5035877;28;20619;-64
2022/09/14 14:35:44;;;;;;;18.70;17.50;;;;;;;;;;5035895;28;20028;-64
2022/09/14 14:38:10;;;;;;;17.45;16.35;;;;;;;;;;5033877;28;20041;-63
2022/09/14 14:40:36;;;;;;;17.35;16.35;;;;;;;;;;5034221;28;20036;-63
2022/09/14 14:43:03;;;;;;;17.77;16.67;;;;;;;;;;5038861;28;20033;-66